Wetterdaten: Woche 17.09.18 - 23.09.18 (KW38)
Datum Zeit Temp. Aussen Temp. o. S. +5cm Feuchte Auss Luftdruck Regen Sonnenschein Regendauer Solar Windben Empfang
17.09.2018 00:00 13,4 C 12,1 C 11,8 C 83 % 1017,6 hPa 0,0 l/m 0,00 h 0,00 h 0 W/m 0,0 km/h (0 Bft) 95,55 %
17.09.2018 01:00 12,4 C 11,2 C 11,0 C 85 % 1017,5 hPa 0,0 l/m 0,00 h 0,00 h 0 W/m 0,0 km/h (0 Bft) 97,49 %
17.09.2018 02:00 11,6 C 10,5 C 10,5 C 87 % 1017,6 hPa 0,0 l/m 0,00 h 0,00 h 0 W/m 0,0 km/h (0 Bft) 98,74 %
17.09.2018 03:00 11,0 C 10,3 C 10,0 C 89 % 1017,7 hPa 0,0 l/m 0,00 h 0,00 h 0 W/m 0,1 km/h (0 Bft) 98,63 %
17.09.2018 04:00 10,9 C 10,5 C 10,2 C 92 % 1017,3 hPa 0,0 l/m 0,00 h 0,00 h 0 W/m 0,1 km/h (0 Bft) 96,45 %
17.09.2018 05:00 10,6 C 9,7 C 9,6 C 93 % 1017,7 hPa 0,0 l/m 0,00 h 0,00 h 0 W/m 0,6 km/h (0 Bft) 97,44 %
17.09.2018 06:00 10,4 C 10,0 C 10,0 C 94 % 1017,6 hPa 0,0 l/m 0,00 h 0,00 h 0 W/m 2,2 km/h (1 Bft) 98,38 %
17.09.2018 07:00 10,4 C 10,1 C 10,0 C 94 % 1017,8 hPa 0,0 l/m 0,00 h 0,00 h 16 W/m 1,2 km/h (1 Bft) 97,28 %
17.09.2018 08:00 10,7 C 11,5 C 10,9 C 94 % 1018,3 hPa 0,0 l/m 0,00 h 0,00 h 44 W/m 3,1 km/h (1 Bft) 98,31 %
17.09.2018 09:00 12,5 C 14,3 C 12,6 C 93 % 1018,3 hPa 0,0 l/m 0,33 h 0,00 h 153 W/m 5,5 km/h (1 Bft) 95,70 %
17.09.2018 10:00 16,2 C 21,1 C 15,0 C 83 % 1018,1 hPa 0,0 l/m 0,63 h 0,00 h 278 W/m 8,3 km/h (2 Bft) 98,17 %
17.09.2018 11:00 20,5 C 26,6 C 17,1 C 69 % 1017,7 hPa 0,0 l/m 0,70 h 0,00 h 343 W/m 6,9 km/h (2 Bft) 96,80 %
17.09.2018 12:00 23,4 C 29,6 C 19,5 C 59 % 1017,4 hPa 0,0 l/m 0,20 h 0,00 h 222 W/m 6,8 km/h (2 Bft) 99,04 %
17.09.2018 13:00 24,5 C 24,5 C 21,0 C 54 % 1016,8 hPa 0,0 l/m 0,50 h 0,00 h 374 W/m 6,9 km/h (2 Bft) 98,31 %
17.09.2018 14:00 24,8 C 25,1 C 21,9 C 49 % 1016,3 hPa 0,0 l/m 0,87 h 0,00 h 533 W/m 7,1 km/h (2 Bft) 94,93 %
17.09.2018 15:00 25,6 C 25,8 C 22,4 C 47 % 1015,6 hPa 0,0 l/m 1,00 h 0,00 h 554 W/m 7,8 km/h (2 Bft) 99,09 %
17.09.2018 16:00 26,4 C 27,7 C 22,3 C 45 % 1015,0 hPa 0,0 l/m 1,00 h 0,00 h 437 W/m 6,4 km/h (2 Bft) 98,45 %
17.09.2018 17:00 26,8 C 27,0 C 21,7 C 43 % 1014,3 hPa 0,0 l/m 1,00 h 0,00 h 295 W/m 4,4 km/h (1 Bft) 95,84 %
17.09.2018 18:00 25,8 C 23,5 C 20,3 C 48 % 1013,8 hPa 0,0 l/m 0,90 h 0,00 h 126 W/m 2,5 km/h (1 Bft) 98,68 %
17.09.2018 19:00 23,0 C 20,0 C 17,8 C 57 % 1013,5 hPa 0,0 l/m 0,20 h 0,00 h 18 W/m 0,0 km/h (0 Bft) 97,94 %
17.09.2018 20:00 19,8 C 17,3 C 16,2 C 64 % 1013,3 hPa 0,0 l/m 0,00 h 0,00 h 0 W/m 0,0 km/h (0 Bft) 97,81 %
17.09.2018 21:00 17,6 C 15,7 C 14,9 C 70 % 1013,0 hPa 0,0 l/m 0,00 h 0,00 h 0 W/m 0,0 km/h (0 Bft) 97,86 %
17.09.2018 22:00 16,0 C 14,8 C 13,9 C 74 % 1012,9 hPa 0,0 l/m 0,00 h 0,00 h 0 W/m 0,8 km/h (0 Bft) 95,39 %
17.09.2018 23:00 15,7 C 16,0 C 14,5 C 75 % 1012,7 hPa 0,0 l/m 0,00 h 0,00 h 0 W/m 4,2 km/h (1 Bft) 99,70 %
18.09.2018 00:00 16,2 C 15,8 C 14,9 C 70 % 1012,4 hPa 0,0 l/m 0,00 h 0,00 h 0 W/m 6,5 km/h (2 Bft) 98,34 %
18.09.2018 01:00 16,2 C 15,6 C 15,0 C 69 % 1011,9 hPa 0,0 l/m 0,00 h 0,00 h 0 W/m 6,8 km/h (2 Bft) 94,82 %
18.09.2018 02:00 15,9 C 15,1 C 14,4 C 71 % 1011,6 hPa 0,0 l/m 0,00 h 0,00 h 0 W/m 8,1 km/h (2 Bft) 99,59 %
18.09.2018 03:00 15,8 C 15,1 C 14,4 C 74 % 1011,2 hPa 0,0 l/m 0,00 h 0,00 h 0 W/m 9,4 km/h (2 Bft) 97,08 %
18.09.2018 04:00 15,8 C 15,1 C 14,4 C 76 % 1010,9 hPa 0,0 l/m 0,00 h 0,00 h 0 W/m 8,7 km/h (2 Bft) 97,08 %
18.09.2018 05:00 15,9 C 15,6 C 14,7 C 76 % 1010,5 hPa 0,0 l/m 0,00 h 0,00 h 0 W/m 9,5 km/h (2 Bft) 98,22 %
18.09.2018 06:00 16,1 C 15,5 C 14,4 C 76 % 1010,1 hPa 0,0 l/m 0,00 h 0,00 h 0 W/m 9,0 km/h (2 Bft) 96,42 %
18.09.2018 07:00 15,8 C 15,1 C 14,4 C 76 % 1010,0 hPa 0,0 l/m 0,00 h 0,00 h 13 W/m 8,9 km/h (2 Bft) 99,22 %
18.09.2018 08:00 16,3 C 16,7 C 15,1 C 76 % 1010,0 hPa 0,0 l/m 0,00 h 0,00 h 30 W/m 10,0 km/h (2 Bft) 97,29 %
18.09.2018 09:00 18,4 C 19,5 C 16,8 C 73 % 1009,9 hPa 0,0 l/m 0,33 h 0,00 h 125 W/m 10,8 km/h (2 Bft) 95,45 %
18.09.2018 10:00 22,3 C 28,0 C 19,2 C 65 % 1010,0 hPa 0,0 l/m 0,60 h 0,00 h 256 W/m 9,9 km/h (2 Bft) 99,65 %
18.09.2018 11:00 27,4 C 33,7 C 22,6 C 54 % 1010,0 hPa 0,0 l/m 0,73 h 0,00 h 365 W/m 8,1 km/h (2 Bft) 96,51 %
18.09.2018 12:00 29,6 C 33,8 C 25,1 C 53 % 1009,9 hPa 0,0 l/m 0,17 h 0,00 h 180 W/m 10,2 km/h (2 Bft) 96,55 %
18.09.2018 13:00 29,8 C 29,7 C 26,4 C 50 % 1009,6 hPa 0,0 l/m 0,67 h 0,00 h 454 W/m 9,9 km/h (2 Bft) 99,86 %
18.09.2018 14:00 30,2 C 30,0 C 27,2 C 45 % 1009,4 hPa 0,0 l/m 0,93 h 0,00 h 550 W/m 9,9 km/h (2 Bft) 96,66 %
18.09.2018 15:00 30,6 C 30,1 C 27,8 C 42 % 1009,4 hPa 0,0 l/m 1,00 h 0,00 h 550 W/m 11,2 km/h (2 Bft) 97,03 %
18.09.2018 16:00 30,5 C 30,7 C 27,4 C 42 % 1009,6 hPa 0,0 l/m 1,00 h 0,00 h 449 W/m 10,2 km/h (2 Bft) 97,30 %
18.09.2018 17:00 29,9 C 29,5 C 26,8 C 44 % 1010,1 hPa 0,0 l/m 1,00 h 0,00 h 311 W/m 10,8 km/h (2 Bft) 98,86 %
18.09.2018 18:00 28,5 C 27,0 C 25,6 C 47 % 1010,3 hPa 0,0 l/m 0,87 h 0,00 h 154 W/m 7,8 km/h (2 Bft) 96,81 %
18.09.2018 19:00 26,4 C 24,5 C 23,6 C 50 % 1011,0 hPa 0,0 l/m 0,00 h 0,00 h 15 W/m 6,2 km/h (2 Bft) 96,10 %
18.09.2018 20:00 24,2 C 22,1 C 21,5 C 57 % 1012,2 hPa 0,0 l/m 0,00 h 0,00 h 0 W/m 2,3 km/h (1 Bft) 99,74 %
18.09.2018 21:00 22,3 C 20,1 C 19,4 C 64 % 1013,0 hPa 0,0 l/m 0,00 h 0,00 h 0 W/m 0,6 km/h (0 Bft) 97,65 %
18.09.2018 22:00 20,4 C 18,2 C 17,5 C 70 % 1013,4 hPa 0,0 l/m 0,00 h 0,00 h 0 W/m 0,0 km/h (0 Bft) 95,51 %
18.09.2018 23:00 18,7 C 17,1 C 16,7 C 75 % 1013,9 hPa 0,0 l/m 0,00 h 0,00 h 0 W/m 0,1 km/h (0 Bft) 99,64 %
19.09.2018 00:00 17,8 C 16,3 C 15,9 C 78 % 1014,4 hPa 0,0 l/m 0,00 h 0,00 h 0 W/m 0,0 km/h (0 Bft) 97,27 %
19.09.2018 01:00 16,8 C 15,3 C 15,1 C 81 % 1014,7 hPa 0,0 l/m 0,00 h 0,00 h 0 W/m 0,0 km/h (0 Bft) 96,73 %
19.09.2018 02:00 15,9 C 14,4 C 14,2 C 84 % 1014,8 hPa 0,0 l/m 0,00 h 0,00 h 0 W/m 0,0 km/h (0 Bft) 97,30 %
19.09.2018 03:00 15,1 C 13,9 C 13,7 C 86 % 1014,9 hPa 0,0 l/m 0,00 h 0,00 h 0 W/m 0,0 km/h (0 Bft) 98,65 %
19.09.2018 04:00 14,4 C 13,5 C 13,4 C 88 % 1014,9 hPa 0,0 l/m 0,00 h 0,00 h 0 W/m 1,1 km/h (0 Bft) 97,04 %
19.09.2018 05:00 14,5 C 14,3 C 13,9 C 92 % 1015,0 hPa 0,0 l/m 0,00 h 0,00 h 0 W/m 2,2 km/h (1 Bft) 97,72 %
19.09.2018 06:00 14,7 C 14,4 C 14,1 C 92 % 1015,1 hPa 0,0 l/m 0,00 h 0,00 h 0 W/m 3,3 km/h (1 Bft) 97,40 %
19.09.2018 07:00 14,8 C 14,4 C 14,4 C 91 % 1014,9 hPa 0,0 l/m 0,00 h 0,00 h 13 W/m 4,4 km/h (1 Bft) 96,60 %
19.09.2018 08:00 15,4 C 15,8 C 15,0 C 92 % 1014,7 hPa 0,0 l/m 0,00 h 0,00 h 38 W/m 7,7 km/h (2 Bft) 99,50 %
19.09.2018 09:00 17,3 C 18,6 C 16,6 C 90 % 1014,9 hPa 0,0 l/m 0,33 h 0,00 h 123 W/m 7,2 km/h (2 Bft) 96,09 %
19.09.2018 10:00 20,9 C 25,9 C 19,1 C 82 % 1014,9 hPa 0,0 l/m 0,47 h 0,00 h 229 W/m 8,8 km/h (2 Bft) 97,65 %
19.09.2018 11:00 24,8 C 28,7 C 21,5 C 70 % 1014,7 hPa 0,0 l/m 0,60 h 0,00 h 335 W/m 10,5 km/h (2 Bft) 98,51 %
19.09.2018 12:00 25,9 C 27,7 C 23,4 C 66 % 1014,5 hPa 0,0 l/m 0,25 h 0,00 h 264 W/m 13,9 km/h (3 Bft) 96,85 %
19.09.2018 13:00 26,6 C 26,7 C 24,3 C 63 % 1014,4 hPa 0,0 l/m 0,63 h 0,00 h 423 W/m 12,7 km/h (3 Bft) 98,16 %
19.09.2018 14:00 27,2 C 27,1 C 25,2 C 59 % 1014,2 hPa 0,0 l/m 0,90 h 0,00 h 519 W/m 13,1 km/h (3 Bft) 96,41 %
19.09.2018 15:00 27,5 C 27,1 C 25,6 C 56 % 1013,8 hPa 0,0 l/m 0,93 h 0,00 h 525 W/m 13,2 km/h (3 Bft) 98,09 %
19.09.2018 16:00 28,0 C 28,4 C 25,9 C 54 % 1013,5 hPa 0,0 l/m 0,93 h 0,00 h 425 W/m 12,9 km/h (3 Bft) 98,08 %
19.09.2018 17:00 27,8 C 27,5 C 25,5 C 53 % 1013,5 hPa 0,0 l/m 0,97 h 0,00 h 300 W/m 11,3 km/h (2 Bft) 96,73 %
19.09.2018 18:00 26,6 C 25,3 C 24,4 C 55 % 1013,9 hPa 0,0 l/m 0,60 h 0,00 h 106 W/m 8,8 km/h (2 Bft) 98,79 %
19.09.2018 19:00 24,8 C 22,9 C 22,5 C 58 % 1014,5 hPa 0,0 l/m 0,00 h 0,00 h 15 W/m 5,3 km/h (1 Bft) 96,74 %
19.09.2018 20:00 22,6 C 20,8 C 20,6 C 62 % 1015,1 hPa 0,0 l/m 0,00 h 0,00 h 0 W/m 2,3 km/h (1 Bft) 97,38 %
19.09.2018 21:00 20,9 C 18,8 C 18,3 C 67 % 1015,6 hPa 0,0 l/m 0,00 h 0,00 h 0 W/m 0,2 km/h (0 Bft) 99,58 %
19.09.2018 22:00 19,3 C 18,2 C 17,3 C 72 % 1016,0 hPa 0,0 l/m 0,00 h 0,00 h 0 W/m 0,5 km/h (0 Bft) 94,83 %
19.09.2018 23:00 18,8 C 17,8 C 17,1 C 74 % 1016,4 hPa 0,0 l/m 0,00 h 0,00 h 0 W/m 0,7 km/h (0 Bft) 97,87 %
20.09.2018 00:00 18,1 C 16,9 C 16,3 C 77 % 1016,3 hPa 0,0 l/m 0,00 h 0,00 h 0 W/m 0,8 km/h (0 Bft) 99,44 %
20.09.2018 01:00 17,7 C 16,9 C 16,6 C 79 % 1016,0 hPa 0,0 l/m 0,00 h 0,00 h 0 W/m 1,8 km/h (1 Bft) 95,47 %
20.09.2018 02:00 17,3 C 16,2 C 15,9 C 80 % 1015,5 hPa 0,0 l/m 0,00 h 0,00 h 0 W/m 0,5 km/h (0 Bft) 97,48 %
20.09.2018 03:00 16,6 C 15,6 C 15,3 C 82 % 1015,5 hPa 0,0 l/m 0,00 h 0,00 h 0 W/m 0,8 km/h (0 Bft) 98,16 %
20.09.2018 04:00 16,2 C 15,4 C 15,1 C 84 % 1015,5 hPa 0,0 l/m 0,00 h 0,00 h 0 W/m 0,5 km/h (0 Bft) 96,98 %
20.09.2018 05:00 15,7 C 14,7 C 14,7 C 85 % 1015,4 hPa 0,0 l/m 0,00 h 0,00 h 0 W/m 1,0 km/h (0 Bft) 99,15 %
20.09.2018 06:00 15,3 C 14,4 C 14,3 C 86 % 1015,4 hPa 0,0 l/m 0,00 h 0,00 h 0 W/m 0,0 km/h (0 Bft) 94,95 %
20.09.2018 07:00 15,0 C 14,2 C 14,0 C 87 % 1015,3 hPa 0,0 l/m 0,00 h 0,00 h 11 W/m 0,0 km/h (0 Bft) 98,15 %
20.09.2018 08:00 15,0 C 15,1 C 14,5 C 89 % 1015,5 hPa 0,0 l/m 0,00 h 0,00 h 42 W/m 0,8 km/h (0 Bft) 98,94 %
20.09.2018 09:00 16,4 C 18,2 C 16,5 C 89 % 1015,4 hPa 0,0 l/m 0,10 h 0,00 h 129 W/m 3,3 km/h (1 Bft) 95,54 %
20.09.2018 10:00 20,3 C 24,3 C 19,3 C 77 % 1015,4 hPa 0,0 l/m 0,37 h 0,00 h 205 W/m 8,1 km/h (2 Bft) 98,86 %
20.09.2018 11:00 23,7 C 27,4 C 21,3 C 66 % 1015,2 hPa 0,0 l/m 0,80 h 0,00 h 408 W/m 10,4 km/h (2 Bft) 99,21 %
20.09.2018 12:00 24,3 C 26,6 C 22,1 C 62 % 1014,9 hPa 0,0 l/m 0,27 h 0,00 h 258 W/m 12,5 km/h (3 Bft) 95,18 %
20.09.2018 13:00 24,2 C 24,1 C 22,4 C 61 % 1014,5 hPa 0,0 l/m 0,60 h 0,00 h 418 W/m 11,6 km/h (2 Bft) 98,36 %
20.09.2018 14:00 24,8 C 24,8 C 23,2 C 59 % 1014,0 hPa 0,0 l/m 0,90 h 0,00 h 458 W/m 11,2 km/h (2 Bft) 98,29 %
20.09.2018 15:00 25,3 C 25,2 C 23,7 C 56 % 1013,3 hPa 0,0 l/m 1,00 h 0,00 h 518 W/m 10,5 km/h (2 Bft) 97,37 %
20.09.2018 16:00 26,1 C 26,9 C 24,4 C 54 % 1012,5 hPa 0,0 l/m 1,00 h 0,00 h 438 W/m 9,6 km/h (2 Bft) 96,51 %
20.09.2018 17:00 26,3 C 26,4 C 24,4 C 52 % 1011,7 hPa 0,0 l/m 1,00 h 0,00 h 304 W/m 8,7 km/h (2 Bft) 97,86 %
20.09.2018 18:00 25,6 C 24,4 C 23,6 C 53 % 1010,8 hPa 0,0 l/m 0,80 h 0,00 h 112 W/m 6,3 km/h (2 Bft) 98,98 %
20.09.2018 19:00 24,3 C 22,5 C 21,4 C 57 % 1010,1 hPa 0,0 l/m 0,00 h 0,00 h 18 W/m 2,5 km/h (1 Bft) 95,17 %
20.09.2018 20:00 22,7 C 21,0 C 19,5 C 61 % 1009,9 hPa 0,0 l/m 0,00 h 0,00 h 0 W/m 1,1 km/h (0 Bft) 98,86 %
20.09.2018 21:00 21,5 C 20,6 C 19,7 C 61 % 1009,7 hPa 0,0 l/m 0,00 h 0,00 h 0 W/m 3,8 km/h (1 Bft) 98,86 %
20.09.2018 22:00 21,1 C 19,7 C 18,6 C 61 % 1009,1 hPa 0,0 l/m 0,00 h 0,00 h 0 W/m 1,7 km/h (1 Bft) 95,52 %
20.09.2018 23:00 19,9 C 18,2 C 17,8 C 65 % 1008,3 hPa 0,0 l/m 0,00 h 0,00 h 0 W/m 4,5 km/h (1 Bft) 98,51 %
21.09.2018 00:00 18,9 C 18,2 C 17,8 C 69 % 1007,4 hPa 0,0 l/m 0,00 h 0,00 h 0 W/m 8,7 km/h (2 Bft) 97,86 %
21.09.2018 01:00 19,1 C 18,3 C 17,8 C 71 % 1006,7 hPa 0,0 l/m 0,00 h 0,00 h 0 W/m 7,5 km/h (2 Bft) 97,66 %
21.09.2018 02:00 19,0 C 18,1 C 17,6 C 72 % 1006,1 hPa 0,0 l/m 0,00 h 0,00 h 0 W/m 6,8 km/h (2 Bft) 97,50 %
21.09.2018 03:00 18,6 C 17,8 C 17,2 C 74 % 1005,1 hPa 0,0 l/m 0,00 h 0,00 h 0 W/m 7,2 km/h (2 Bft) 96,73 %
21.09.2018 04:00 18,3 C 17,8 C 17,2 C 75 % 1003,9 hPa 0,0 l/m 0,00 h 0,00 h 0 W/m 6,6 km/h (2 Bft) 95,33 %
21.09.2018 05:00 19,3 C 19,4 C 18,4 C 72 % 1002,6 hPa 0,0 l/m 0,00 h 0,00 h 0 W/m 8,6 km/h (2 Bft) 98,74 %
21.09.2018 06:00 20,8 C 20,4 C 19,6 C 69 % 1002,0 hPa 0,0 l/m 0,00 h 0,00 h 0 W/m 11,3 km/h (2 Bft) 95,18 %
21.09.2018 07:00 21,4 C 20,6 C 19,9 C 68 % 1001,7 hPa 0,0 l/m 0,00 h 0,00 h 12 W/m 10,8 km/h (2 Bft) 99,68 %
21.09.2018 08:00 21,7 C 21,0 C 20,5 C 60 % 1001,7 hPa 0,0 l/m 0,00 h 0,00 h 25 W/m 15,5 km/h (3 Bft) 98,90 %
21.09.2018 09:00 21,4 C 20,5 C 19,9 C 65 % 1001,9 hPa 0,0 l/m 0,00 h 0,40 h 56 W/m 13,4 km/h (3 Bft) 94,31 %
21.09.2018 10:00 18,3 C 15,4 C 15,3 C 75 % 1003,0 hPa 1,6 l/m 0,00 h 0,73 h 46 W/m 16,6 km/h (3 Bft) 99,57 %
21.09.2018 11:00 14,0 C 12,4 C 12,4 C 90 % 1004,8 hPa 0,4 l/m 0,00 h 0,53 h 100 W/m 12,9 km/h (3 Bft) 99,02 %
21.09.2018 12:00 14,8 C 13,9 C 13,7 C 93 % 1005,1 hPa 0,0 l/m 0,00 h 0,00 h 205 W/m 10,3 km/h (2 Bft) 95,10 %
21.09.2018 13:00 15,9 C 15,8 C 14,1 C 86 % 1005,5 hPa 0,0 l/m 0,27 h 0,10 h 235 W/m 13,2 km/h (3 Bft) 98,10 %
21.09.2018 14:00 16,4 C 16,3 C 15,4 C 75 % 1006,5 hPa 0,0 l/m 0,13 h 0,00 h 226 W/m 17,0 km/h (3 Bft) 98,43 %
21.09.2018 15:00 16,9 C 16,9 C 15,9 C 64 % 1007,6 hPa 0,0 l/m 0,63 h 0,00 h 347 W/m 18,1 km/h (3 Bft) 96,80 %
21.09.2018 16:00 17,3 C 17,7 C 16,0 C 63 % 1008,4 hPa 0,0 l/m 0,63 h 0,13 h 383 W/m 17,9 km/h (3 Bft) 97,65 %
21.09.2018 17:00 17,0 C 16,9 C 15,8 C 58 % 1008,8 hPa 0,0 l/m 0,70 h 0,00 h 239 W/m 20,8 km/h (4 Bft) 98,06 %
21.09.2018 18:00 16,4 C 15,8 C 15,3 C 54 % 1009,2 hPa 0,0 l/m 0,80 h 0,00 h 137 W/m 19,7 km/h (3 Bft) 97,22 %
21.09.2018 19:00 15,6 C 14,4 C 14,4 C 58 % 1009,8 hPa 0,0 l/m 0,00 h 0,00 h 12 W/m 12,8 km/h (3 Bft) 96,68 %
21.09.2018 20:00 15,1 C 14,2 C 14,1 C 61 % 1010,7 hPa 0,0 l/m 0,00 h 0,00 h 0 W/m 14,6 km/h (3 Bft) 97,98 %
21.09.2018 21:00 14,5 C 13,7 C 13,7 C 64 % 1011,8 hPa 0,0 l/m 0,00 h 0,00 h 0 W/m 12,7 km/h (3 Bft) 98,24 %
21.09.2018 22:00 14,1 C 13,2 C 13,2 C 65 % 1012,3 hPa 0,0 l/m 0,00 h 0,00 h 0 W/m 17,0 km/h (3 Bft) 97,45 %
21.09.2018 23:00 13,6 C 12,8 C 12,8 C 70 % 1012,9 hPa 0,0 l/m 0,00 h 0,00 h 0 W/m 18,0 km/h (3 Bft) 95,45 %
22.09.2018 00:00 13,3 C 12,6 C 12,5 C 74 % 1013,8 hPa 0,0 l/m 0,00 h 0,00 h 0 W/m 16,4 km/h (3 Bft) 98,85 %
22.09.2018 01:00 13,1 C 11,8 C 12,1 C 77 % 1014,6 hPa 0,0 l/m 0,00 h 0,63 h 0 W/m 14,4 km/h (3 Bft) 97,79 %
22.09.2018 02:00 12,7 C 11,9 C 11,9 C 80 % 1015,3 hPa 0,0 l/m 0,00 h 0,03 h 0 W/m 13,3 km/h (3 Bft) 96,43 %
22.09.2018 03:00 12,3 C 11,7 C 11,7 C 81 % 1015,9 hPa 0,0 l/m 0,00 h 0,00 h 0 W/m 11,9 km/h (2 Bft) 97,44 %
22.09.2018 04:00 11,9 C 11,1 C 11,3 C 82 % 1016,5 hPa 0,0 l/m 0,00 h 0,00 h 0 W/m 8,4 km/h (2 Bft) 97,28 %
22.09.2018 05:00 11,7 C 11,3 C 11,3 C 83 % 1016,8 hPa 0,0 l/m 0,00 h 0,00 h 0 W/m 6,3 km/h (2 Bft) 97,57 %
22.09.2018 06:00 11,9 C 11,3 C 11,5 C 82 % 1017,3 hPa 0,0 l/m 0,00 h 0,00 h 0 W/m 5,6 km/h (1 Bft) 99,44 %
22.09.2018 07:00 11,6 C 11,1 C 11,1 C 83 % 1017,8 hPa 0,0 l/m 0,00 h 0,00 h 13 W/m 9,1 km/h (2 Bft) 94,50 %
22.09.2018 08:00 11,6 C 11,4 C 11,2 C 85 % 1018,0 hPa 0,0 l/m 0,13 h 0,00 h 76 W/m 10,7 km/h (2 Bft) 98,32 %
22.09.2018 09:00 12,3 C 12,5 C 12,0 C 83 % 1018,2 hPa 0,0 l/m 0,30 h 0,00 h 148 W/m 10,1 km/h (2 Bft) 99,53 %
22.09.2018 10:00 13,4 C 14,7 C 12,8 C 80 % 1018,5 hPa 0,0 l/m 0,20 h 0,00 h 227 W/m 10,2 km/h (2 Bft) 96,01 %
22.09.2018 11:00 15,5 C 17,7 C 14,2 C 72 % 1018,3 hPa 0,0 l/m 0,63 h 0,00 h 333 W/m 15,1 km/h (3 Bft) 96,76 %
22.09.2018 12:00 16,2 C 17,3 C 15,2 C 69 % 1017,7 hPa 0,0 l/m 0,00 h 0,00 h 262 W/m 13,6 km/h (3 Bft) 97,10 %
22.09.2018 13:00 16,6 C 16,5 C 15,5 C 69 % 1017,6 hPa 0,0 l/m 0,20 h 0,10 h 234 W/m 11,9 km/h (2 Bft) 97,78 %
22.09.2018 14:00 15,8 C 14,4 C 13,6 C 77 % 1017,4 hPa 0,2 l/m 0,00 h 0,10 h 182 W/m 9,3 km/h (2 Bft) 97,48 %
22.09.2018 15:00 14,7 C 13,4 C 13,3 C 76 % 1017,7 hPa 0,0 l/m 0,00 h 0,83 h 122 W/m 14,6 km/h (3 Bft) 96,49 %
22.09.2018 16:00 13,5 C 13,0 C 12,8 C 82 % 1017,4 hPa 0,0 l/m 0,00 h 0,50 h 133 W/m 10,2 km/h (2 Bft) 99,24 %
22.09.2018 17:00 13,5 C 12,0 C 12,2 C 85 % 1017,3 hPa 0,2 l/m 0,00 h 0,87 h 67 W/m 9,0 km/h (2 Bft) 96,63 %
22.09.2018 18:00 12,5 C 10,1 C 10,6 C 87 % 1017,1 hPa 0,4 l/m 0,00 h 1,00 h 20 W/m 3,8 km/h (1 Bft) 95,80 %
22.09.2018 19:00 11,9 C 10,0 C 10,5 C 90 % 1016,8 hPa 0,2 l/m 0,00 h 0,97 h 11 W/m 4,1 km/h (1 Bft) 99,46 %
22.09.2018 20:00 11,6 C 10,0 C 10,3 C 92 % 1017,0 hPa 0,2 l/m 0,00 h 0,90 h 0 W/m 2,3 km/h (1 Bft) 97,97 %
22.09.2018 21:00 11,3 C 10,0 C 10,0 C 93 % 1017,0 hPa 0,2 l/m 0,00 h 0,93 h 0 W/m 1,9 km/h (1 Bft) 96,10 %
22.09.2018 22:00 11,2 C 10,0 C 10,0 C 94 % 1016,7 hPa 0,4 l/m 0,00 h 0,93 h 0 W/m 2,0 km/h (1 Bft) 97,44 %
22.09.2018 23:00 11,1 C 10,0 C 10,0 C 95 % 1016,2 hPa 0,2 l/m 0,00 h 0,90 h 0 W/m 3,1 km/h (1 Bft) 97,86 %
23.09.2018 00:00 10,9 C 9,9 C 10,0 C 95 % 1015,5 hPa 0,4 l/m 0,00 h 0,60 h 0 W/m 4,0 km/h (1 Bft) 93,75 %
23.09.2018 01:00 10,7 C 9,6 C 10,0 C 96 % 1014,8 hPa 0,0 l/m 0,00 h 0,03 h 0 W/m 5,6 km/h (1 Bft) 97,35 %
23.09.2018 02:00 10,6 C 9,6 C 10,0 C 96 % 1013,6 hPa 0,2 l/m 0,00 h 0,70 h 0 W/m 7,1 km/h (2 Bft) 96,81 %
23.09.2018 03:00 10,7 C 10,0 C 10,2 C 97 % 1012,7 hPa 0,2 l/m 0,00 h 0,63 h 0 W/m 7,7 km/h (2 Bft) 98,35 %
23.09.2018 04:00 10,9 C 10,1 C 10,6 C 97 % 1011,8 hPa 0,6 l/m 0,00 h 0,67 h 0 W/m 6,0 km/h (2 Bft) 97,63 %
23.09.2018 05:00 11,1 C 10,6 C 10,6 C 97 % 1010,9 hPa 0,4 l/m 0,00 h 0,70 h 0 W/m 3,8 km/h (1 Bft) 96,25 %
23.09.2018 06:00 11,1 C 10,6 C 10,6 C 98 % 1010,0 hPa 0,0 l/m 0,00 h 0,27 h 0 W/m 3,3 km/h (1 Bft) 97,97 %
23.09.2018 07:00 11,1 C 10,6 C 10,6 C 98 % 1009,6 hPa 0,4 l/m 0,00 h 0,53 h 6 W/m 0,8 km/h (0 Bft) 97,64 %
23.09.2018 08:00 11,2 C 10,6 C 10,6 C 98 % 1009,2 hPa 0,0 l/m 0,00 h 0,00 h 18 W/m 0,8 km/h (0 Bft) 97,11 %
23.09.2018 09:00 11,5 C 11,0 C 10,6 C 98 % 1008,9 hPa 0,0 l/m 0,00 h 0,00 h 59 W/m 3,5 km/h (1 Bft) 97,41 %
23.09.2018 10:00 11,8 C 11,5 C 11,0 C 98 % 1008,5 hPa 0,0 l/m 0,00 h 0,23 h 75 W/m 2,6 km/h (1 Bft) 97,83 %
23.09.2018 11:00 12,0 C 11,5 C 11,1 C 98 % 1007,6 hPa 0,6 l/m 0,00 h 0,77 h 67 W/m 3,9 km/h (1 Bft) 86,09 %
23.09.2018 12:00 12,1 C 11,2 C 11,0 C 99 % 1006,8 hPa 3,6 l/m 0,00 h 1,00 h 35 W/m 6,2 km/h (2 Bft) 84,82 %
23.09.2018 13:00 11,8 C 11,0 C 10,6 C 99 % 1005,8 hPa 2,8 l/m 0,00 h 1,00 h 75 W/m 13,6 km/h (3 Bft) 95,56 %
23.09.2018 14:00 11,3 C 10,4 C 10,1 C 98 % 1006,5 hPa 2,6 l/m 0,00 h 1,00 h 59 W/m 21,6 km/h (4 Bft) 96,47 %
23.09.2018 15:00 10,7 C 10,0 C 9,6 C 98 % 1007,0 hPa 0,8 l/m 0,00 h 1,00 h 61 W/m 17,6 km/h (3 Bft) 97,91 %
23.09.2018 16:00 10,6 C 9,9 C 9,4 C 98 % 1008,6 hPa 0,4 l/m 0,00 h 1,00 h 95 W/m 19,9 km/h (4 Bft) 95,18 %
23.09.2018 17:00 10,2 C 9,3 C 9,1 C 98 % 1009,7 hPa 0,0 l/m 0,00 h 0,27 h 58 W/m 16,4 km/h (3 Bft) 99,12 %
23.09.2018 18:00 9,5 C 8,5 C 8,4 C 98 % 1011,9 hPa 0,0 l/m 0,00 h 0,40 h 23 W/m 21,0 km/h (4 Bft) 98,09 %
23.09.2018 19:00 9,2 C 8,3 C 8,3 C 98 % 1014,2 hPa 0,8 l/m 0,00 h 1,00 h 5 W/m 13,2 km/h (3 Bft) 95,91 %
23.09.2018 20:00 9,2 C 8,2 C 8,1 C 98 % 1016,4 hPa 0,4 l/m 0,00 h 1,00 h 0 W/m 13,9 km/h (3 Bft) 98,63 %
23.09.2018 21:00 8,8 C 7,8 C 7,8 C 98 % 1017,9 hPa 0,0 l/m 0,00 h 0,23 h 0 W/m 8,3 km/h (2 Bft) 96,91 %
23.09.2018 22:00 8,9 C 8,2 C 8,0 C 98 % 1019,4 hPa 0,0 l/m 0,00 h 0,37 h 0 W/m 7,1 km/h (2 Bft) 97,94 %
23.09.2018 23:00 8,8 C 7,8 C 7,8 C 98 % 1020,8 hPa 0,2 l/m 0,00 h 0,00 h 0 W/m 6,8 km/h (2 Bft) 97,00 %
Min-Datum _ 23.09.18 23.09.18 23.09.18 18.09.18 21.09.18 - - - - 17.09.18 21.09.18
_ Min-Zeit 23:52 20:44 20:34 15:56 08:36 - - - - 00:00 04:10
Minimum _ 8,6 C 7,8 C 7,8 C 39 % 1001,4 hPa - - - - 0,0 km/h (0 Bft) 11,11 %
Max-Datum _ 18.09.18 18.09.18 18.09.18 23.09.18 23.09.18 23.09.18 17.09.18 23.09.18 20.09.18 21.09.18 17.09.18
_ Max-Zeit 15:34 11:54 14:38 11:56 23:54 12:35 10:08 12:40 13:46 22:34 01:34
Maximum _ 30,7 C 36,1 C 27,8 C 99 % 1021,4 hPa 3,6 l/m 0,07 h 0,08 h 734 W/m 41,8 km/h
O (6 Bft)
100,00 %
Durchschnitt _ 17,4 C 17,1 C 15,8 C 75 % 1012,9 hPa #18,4 l/m #32:43 h #24:04 h 197 W/m 7,5 km/h (2 Bft) 97,32 %
© 2018 W. Hausmann